KDAA

Davison AAF Airport

Fort Belvoir, Virginia, USA
TAF KDAA 181800Z 1818/1924 33012G18KT 9999 SKC QNH3014INS BECMG 1821/1822 32007KT 9999 SKC QNH3018INS WND 24007KT AFT 1914 TX08/1820Z TNM01/1908Z
Issued Valid From Valid To
Dec-18 @ 18:00 UTC
(6 hours ago)
Dec-18 @ 18:00 UTC
(6 hours ago)
Dec-20 @ 00:00 UTC
(in 24 hours)
Expired Click to View Dec-18 @ 18:00 to Dec-18 @ 21:00
TAF KDAA 181800Z 1818/1924 33012G18KT 9999 SKC QNH3014INS
Wind Visibility Clouds Readings
330° at 12 knots
 Gusting to 18 knots
Greater than 6 miles
  • Clear skies
Altimeter 30.15" Hg
Pressure 1021 hPa
Becoming Dec-18 @ 21:00 to Dec-20 @ 00:00
BECMG 1821/1822 32007KT 9999 SKC QNH3018INS WND 24007KT AFT 1914 TX08/1820Z TNM01/1908Z
Wind Visibility Clouds Readings
320° at 7 knots Greater than 6 miles
  • Clear skies
Altimeter 30.18" Hg
Pressure 1022 hPa
TAF KDAA 181800Z 1818/1924 33012G18KT 9999 SKC QNH3014INS BECMG 1821/1822 32007KT 9999 SKC QNH3018INS WND 24007KT AFT 1914 TX08/1820Z TNM01/1908Z
Issued Dec-18 @ 18:00 UTC
(6 hours ago)
Valid From Dec-18 @ 18:00 UTC
(6 hours ago)
Valid To Dec-20 @ 00:00 UTC
(in 24 hours)
Dec-18 @ 18:00 - Dec-18 @ 21:00
Wind Visibility
330° at 12 knots
 Gusting to 18 knots
Greater than 6 miles
Clouds
  • Clear skies
Becoming Dec-18 @ 21:00 - Dec-20 @ 00:00
Wind Visibility
320° at 7 knots Greater than 6 miles
Clouds
  • Clear skies